createdAt,value
2022-10-02T00:03:02.234Z,100079.97
2022-10-02T00:06:27.401Z,100085.03
2022-10-02T00:09:54.802Z,100085.03
2022-10-02T00:13:24.695Z,100077.28
2022-10-02T00:16:50.130Z,100082.34
2022-10-02T00:20:15.383Z,100076.28
2022-10-02T00:23:41.952Z,100062.56
2022-10-02T00:27:15.690Z,100070.38
2022-10-02T00:30:57.047Z,100052.44
2022-10-02T00:34:30.883Z,100060.78
2022-10-02T00:38:00.147Z,100062.56
2022-10-02T00:41:49.265Z,100070.38
2022-10-02T00:45:30.815Z,100077.28
2022-10-02T00:49:14.452Z,100067.97
2022-10-02T00:52:51.106Z,100065.38
2022-10-02T00:56:24.282Z,100041.50
2022-10-02T01:00:00.777Z,100066.38
2022-10-02T01:03:27.955Z,100072.44
2022-10-02T01:06:51.546Z,100068.13
2022-10-02T01:10:15.131Z,100066.31
2022-10-02T01:13:37.246Z,100066.31
2022-10-02T01:16:59.605Z,100069.91
2022-10-02T01:20:24.885Z,100069.06
2022-10-02T01:23:56.305Z,100025.81
2022-10-02T01:27:20.385Z,100069.22
2022-10-02T01:30:45.670Z,100064.84
2022-10-02T01:34:08.092Z,100064.84
2022-10-02T01:37:32.834Z,100070.03
2022-10-02T01:40:54.930Z,100062.47
2022-10-02T01:44:18.216Z,100065.75
2022-10-02T01:47:50.475Z,100059.72
2022-10-02T01:51:25.949Z,100061.44
2022-10-02T01:54:59.806Z,100066.59
2022-10-02T01:58:31.193Z,100058.00
2022-10-02T02:02:06.873Z,100069.41
2022-10-02T02:05:42.467Z,100061.69
2022-10-02T02:09:11.170Z,100056.63
2022-10-02T02:12:42.610Z,100055.84
2022-10-02T02:16:10.453Z,100062.03
2022-10-02T02:19:41.328Z,100060.34
2022-10-02T02:23:09.556Z,100061.19
2022-10-02T02:26:32.497Z,100049.38
2022-10-02T02:29:58.748Z,100061.19
2022-10-02T02:33:26.420Z,100059.66
2022-10-02T02:36:53.836Z,100045.34
2022-10-02T02:40:19.946Z,100069.25
2022-10-02T02:43:47.995Z,100063.16
2022-10-02T02:47:15.500Z,100057.34
2022-10-02T02:50:43.608Z,100065.16
2022-10-02T02:54:14.052Z,100063.53
2022-10-02T02:57:42.283Z,100058.38
2022-10-02T03:01:05.231Z,100054.94
2022-10-02T03:04:27.197Z,100058.47
2022-10-02T03:07:54.199Z,100050.69
2022-10-02T03:11:28.721Z,100060.28
2022-10-02T03:15:15.214Z,100053.41
2022-10-02T03:18:50.922Z,100054.22
2022-10-02T03:22:21.686Z,100023.03
2022-10-02T03:25:51.736Z,100048.97
2022-10-02T03:29:20.290Z,100049.81
2022-10-02T03:32:46.254Z,100055.06
2022-10-02T03:36:08.668Z,100049.25
2022-10-02T03:39:30.647Z,100053.41
2022-10-02T03:42:53.868Z,100055.16
2022-10-02T03:46:17.638Z,100050.84
2022-10-02T03:49:39.994Z,100059.59
2022-10-02T03:53:01.957Z,100052.06
2022-10-02T03:56:36.097Z,100064.81
2022-10-02T04:00:05.367Z,100057.06
2022-10-02T04:03:32.190Z,100054.81
2022-10-02T04:07:01.065Z,100065.88
2022-10-02T04:10:38.061Z,100059.97
2022-10-02T04:14:10.034Z,100061.78
2022-10-02T04:17:44.161Z,100059.22
2022-10-02T04:21:14.426Z,100042.25
2022-10-02T04:24:44.726Z,100058.53
2022-10-02T04:28:12.007Z,100053.31
2022-10-02T04:31:34.139Z,100047.28
2022-10-02T04:34:56.186Z,100053.31
2022-10-02T04:38:43.551Z,100047.41
2022-10-02T04:42:21.450Z,100052.63
2022-10-02T04:45:59.118Z,100053.47
2022-10-02T04:49:39.345Z,100051.00
2022-10-02T04:53:26.522Z,100052.75
2022-10-02T04:57:13.474Z,100059.59
2022-10-02T05:00:41.921Z,100060.50
2022-10-02T05:04:20.508Z,100050.22
2022-10-02T05:07:58.569Z,100059.59
2022-10-02T05:11:45.729Z,100056.16
2022-10-02T05:15:32.834Z,100053.47
2022-10-02T05:19:16.018Z,100051.69
2022-10-02T05:23:01.221Z,100060.44
2022-10-02T05:26:51.465Z,100050.16
2022-10-02T05:30:15.172Z,100053.59
2022-10-02T05:33:49.456Z,100063.03
2022-10-02T05:37:26.167Z,100059.59
2022-10-02T05:41:01.455Z,100059.66
2022-10-02T05:44:27.796Z,100063.19
2022-10-02T05:47:52.138Z,100062.47
2022-10-02T05:51:22.273Z,100060.84
2022-10-02T05:54:51.381Z,100059.88
2022-10-02T05:58:21.427Z,100039.50
2022-10-02T06:01:48.141Z,100059.94
2022-10-02T06:05:19.734Z,100064.03
2022-10-02T06:08:48.735Z,100066.72
2022-10-02T06:12:16.307Z,100064.94
2022-10-02T06:15:45.515Z,100057.97
2022-10-02T06:19:14.720Z,100060.44
2022-10-02T06:22:42.696Z,100065.50
2022-10-02T06:26:12.928Z,100067.03
2022-10-02T06:29:41.554Z,100061.69
2022-10-02T06:33:09.093Z,100066.56
2022-10-02T06:36:49.972Z,100072.41
2022-10-02T06:40:47.432Z,100069.81
2022-10-02T06:44:27.807Z,100069.66
2022-10-02T06:48:03.675Z,100069.44
2022-10-02T06:51:40.143Z,100069.09
2022-10-02T06:55:18.875Z,100068.03
2022-10-02T06:58:52.897Z,100071.13
2022-10-02T07:02:33.523Z,100059.47
2022-10-02T07:06:31.443Z,100076.59
2022-10-02T07:10:11.448Z,100072.00
2022-10-02T07:13:53.925Z,100069.84
2022-10-02T07:17:31.525Z,100075.53
2022-10-02T07:21:05.453Z,100079.41
2022-10-02T07:24:58.623Z,100075.59
2022-10-02T07:28:30.115Z,100079.72
2022-10-02T07:32:03.987Z,100080.22
2022-10-02T07:35:41.389Z,100075.38
2022-10-02T07:39:14.686Z,100074.13
2022-10-02T07:42:56.493Z,100067.84
2022-10-02T07:46:27.232Z,100059.75
2022-10-02T07:49:58.080Z,100062.81
2022-10-02T07:53:31.573Z,100054.84
2022-10-02T07:56:56.180Z,100055.97
2022-10-02T08:00:21.090Z,100049.47
2022-10-02T08:03:49.681Z,100050.75
2022-10-02T08:07:14.482Z,100052.81
2022-10-02T08:10:43.382Z,100056.00
2022-10-02T08:14:12.692Z,100062.28
2022-10-02T08:17:43.947Z,100060.84
2022-10-02T08:21:14.787Z,100054.34
2022-10-02T08:24:43.581Z,100063.97
2022-10-02T08:28:14.877Z,100054.91
2022-10-02T08:31:38.048Z,100043.72
2022-10-02T08:35:01.578Z,100057.63
2022-10-02T08:38:37.585Z,100048.00
2022-10-02T08:42:27.848Z,100055.84
2022-10-02T08:46:20.508Z,100048.56
2022-10-02T08:50:29.749Z,100056.34
2022-10-02T08:54:26.919Z,100044.50
2022-10-02T08:58:29.593Z,100059.63
2022-10-02T09:02:30.707Z,100062.91
2022-10-02T09:06:40.311Z,100061.13
2022-10-02T09:10:48.166Z,100064.22
2022-10-02T09:14:37.713Z,100063.63
2022-10-02T09:18:18.275Z,100064.09
2022-10-02T09:22:02.434Z,100057.84
2022-10-02T09:25:37.476Z,100054.75
2022-10-02T09:29:31.055Z,100062.25
2022-10-02T09:33:23.404Z,100060.63
2022-10-02T09:37:04.591Z,100051.84
2022-10-02T09:41:10.610Z,100049.06
2022-10-02T09:45:02.711Z,100046.00
2022-10-02T09:49:09.287Z,100048.00
2022-10-02T09:53:07.990Z,100044.06
2022-10-02T09:57:13.610Z,100031.19
2022-10-02T10:01:04.379Z,100039.84
2022-10-02T10:05:09.608Z,100045.41
2022-10-02T10:09:10.969Z,100040.72
2022-10-02T10:13:12.739Z,100039.16
2022-10-02T10:17:13.998Z,100038.34
2022-10-02T10:21:08.308Z,100036.94
2022-10-02T10:25:07.814Z,100043.28
2022-10-02T10:29:01.799Z,100039.44
2022-10-02T10:33:01.723Z,100039.06
2022-10-02T10:37:15.782Z,100035.34
2022-10-02T10:40:48.476Z,100032.72
2022-10-02T10:44:53.727Z,100031.13
2022-10-02T10:48:32.620Z,100023.84
2022-10-02T10:51:59.815Z,100034.31
2022-10-02T10:55:39.363Z,100029.91
2022-10-02T10:59:44.687Z,100030.13
2022-10-02T11:04:01.546Z,100023.66
2022-10-02T11:07:41.709Z,100021.47
2022-10-02T11:11:12.349Z,100017.00
2022-10-02T11:14:49.133Z,100030.56
2022-10-02T11:18:28.990Z,100030.84
2022-10-02T11:22:16.423Z,100045.66
2022-10-02T11:26:23.108Z,100039.19
2022-10-02T11:30:14.838Z,100040.19
2022-10-02T11:33:58.073Z,100047.50
2022-10-02T11:37:43.766Z,100051.25
2022-10-02T11:41:25.266Z,100047.16
2022-10-02T11:45:09.526Z,100049.19
2022-10-02T11:48:53.783Z,100043.66
2022-10-02T11:52:52.379Z,100042.63
2022-10-02T11:56:32.637Z,100046.53
2022-10-02T12:00:08.206Z,100048.13
2022-10-02T12:03:39.353Z,100047.75
2022-10-02T12:07:14.192Z,100049.72
2022-10-02T12:10:50.356Z,100047.50
2022-10-02T12:14:30.315Z,100044.22
2022-10-02T12:18:21.636Z,100034.69
2022-10-02T12:22:12.350Z,100050.56
2022-10-02T12:26:01.322Z,100055.06
2022-10-02T12:29:33.499Z,100051.78
2022-10-02T12:33:20.525Z,100050.38
2022-10-02T12:36:58.641Z,100056.78
2022-10-02T12:40:30.816Z,100045.63
2022-10-02T12:44:37.088Z,100048.25
2022-10-02T12:48:28.655Z,100046.47
2022-10-02T12:52:28.450Z,100042.38
2022-10-02T12:56:23.495Z,100033.00
2022-10-02T12:59:57.065Z,100031.25
2022-10-02T13:04:09.662Z,100043.47
2022-10-02T13:08:14.841Z,100033.84
2022-10-02T13:11:55.897Z,100022.44
2022-10-02T13:15:41.163Z,100017.84
2022-10-02T13:19:16.659Z,100015.97
2022-10-02T13:22:52.118Z,100012.59
2022-10-02T13:26:27.565Z,100020.38
2022-10-02T13:30:04.660Z,100020.66
2022-10-02T13:33:42.663Z,100009.13
2022-10-02T13:37:19.877Z,100010.53
2022-10-02T13:40:51.218Z,100015.50
2022-10-02T13:44:24.624Z,100016.34
2022-10-02T13:47:59.362Z,100012.59
2022-10-02T13:51:30.667Z,100015.78
2022-10-02T13:55:12.318Z,100008.69
2022-10-02T13:58:53.504Z,99965.47
2022-10-02T14:02:27.112Z,100005.81
2022-10-02T14:05:57.982Z,99993.38
2022-10-02T14:09:35.870Z,99989.19
2022-10-02T14:13:12.035Z,100001.59
2022-10-02T14:16:52.903Z,99988.66
2022-10-02T14:20:35.439Z,99991.84
2022-10-02T14:24:23.382Z,99995.50
2022-10-02T14:28:23.583Z,99994.88
2022-10-02T14:32:04.883Z,99984.84
2022-10-02T14:35:44.557Z,99996.41
2022-10-02T14:39:13.866Z,99987.78
2022-10-02T14:42:54.650Z,99980.03
2022-10-02T14:46:31.630Z,99996.41
2022-10-02T14:50:12.721Z,100000.53
2022-10-02T14:54:04.682Z,100000.25
2022-10-02T14:57:41.850Z,100007.66
2022-10-02T15:01:23.929Z,100003.91
2022-10-02T15:05:00.045Z,100008.38
2022-10-02T15:08:33.128Z,100003.81
2022-10-02T15:12:13.596Z,100005.19
2022-10-02T15:15:42.763Z,100016.09
2022-10-02T15:19:14.265Z,100014.31
2022-10-02T15:22:46.724Z,100013.88
2022-10-02T15:26:26.393Z,100014.41
2022-10-02T15:30:05.024Z,100023.00
2022-10-02T15:33:36.176Z,100018.59
2022-10-02T15:37:18.597Z,100023.66
2022-10-02T15:40:48.006Z,100026.69
2022-10-02T15:44:33.283Z,100031.59
2022-10-02T15:48:28.811Z,100040.09
2022-10-02T15:52:04.701Z,100035.59
2022-10-02T15:55:39.206Z,100032.19
2022-10-02T15:59:21.309Z,100037.75
2022-10-02T16:02:59.022Z,100040.09
2022-10-02T16:06:36.523Z,100038.88
2022-10-02T16:10:15.149Z,100015.13
2022-10-02T16:13:50.393Z,100047.13
2022-10-02T16:17:32.711Z,100049.34
2022-10-02T16:21:24.241Z,100054.09
2022-10-02T16:25:16.179Z,100055.38
2022-10-02T16:28:55.212Z,100050.06
2022-10-02T16:32:31.586Z,100052.72
2022-10-02T16:36:11.136Z,100054.81
2022-10-02T16:39:54.170Z,100057.66
2022-10-02T16:43:35.354Z,100054.25
2022-10-02T16:47:08.553Z,100051.88
2022-10-02T16:50:46.504Z,100054.78
2022-10-02T16:54:24.579Z,100063.66
2022-10-02T16:57:59.418Z,100046.78
2022-10-02T17:01:31.183Z,100053.75
2022-10-02T17:05:03.876Z,100055.63
2022-10-02T17:08:35.030Z,100056.78
2022-10-02T17:12:05.151Z,100055.31
2022-10-02T17:15:35.896Z,100053.81
2022-10-02T17:19:00.389Z,100059.38
2022-10-02T17:22:34.203Z,100056.22
2022-10-02T17:26:04.553Z,100061.69
2022-10-02T17:29:35.592Z,100054.44
2022-10-02T17:33:13.503Z,100064.16
2022-10-02T17:36:38.816Z,100053.22
2022-10-02T17:40:13.832Z,100033.47
2022-10-02T17:43:44.085Z,100065.09
2022-10-02T17:47:28.150Z,100066.22
2022-10-02T17:55:37.313Z,100057.38
2022-10-02T17:59:27.731Z,100047.75
2022-10-02T18:03:18.839Z,100057.38
2022-10-02T18:06:52.247Z,100059.41
2022-10-02T18:10:27.497Z,100058.75
2022-10-02T18:13:59.797Z,100056.31
2022-10-02T18:17:31.226Z,100050.47
2022-10-02T18:21:05.045Z,100056.56
2022-10-02T18:24:42.240Z,100061.97
2022-10-02T18:28:20.039Z,100075.84
2022-10-02T18:32:09.960Z,100071.66
2022-10-02T18:35:48.667Z,100070.88
2022-10-02T18:39:20.745Z,100063.22
2022-10-02T18:43:08.488Z,100070.19
2022-10-02T18:46:49.875Z,100066.75
2022-10-02T18:50:34.136Z,100068.56
2022-10-02T18:54:11.940Z,100050.84
2022-10-02T18:57:52.107Z,100068.81
2022-10-02T19:01:36.279Z,100074.91
2022-10-02T19:05:22.160Z,100076.81
2022-10-02T19:09:15.637Z,100071.72
2022-10-02T19:12:44.941Z,100070.88
2022-10-02T19:16:19.122Z,100083.94
2022-10-02T19:19:42.755Z,100069.25
2022-10-02T19:23:09.487Z,100082.25
2022-10-02T19:26:36.344Z,100080.56
2022-10-02T19:30:01.141Z,100077.22
2022-10-02T19:33:32.708Z,100089.19
2022-10-02T19:36:58.944Z,100089.25
2022-10-02T19:40:26.099Z,100087.44
2022-10-02T19:43:54.696Z,100072.09
2022-10-02T19:47:27.691Z,100078.72
2022-10-02T19:50:53.312Z,100082.25
2022-10-02T19:54:21.905Z,100083.19
2022-10-02T19:57:48.551Z,100084.88
2022-10-02T20:01:20.852Z,100070.53
2022-10-02T20:04:43.827Z,100085.09
2022-10-02T20:08:13.502Z,100086.94
2022-10-02T20:11:41.480Z,100087.03
2022-10-02T20:15:10.587Z,100060.75
2022-10-02T20:18:32.526Z,100075.97
2022-10-02T20:21:57.120Z,100078.69
2022-10-02T20:25:29.042Z,100076.22
2022-10-02T20:28:56.658Z,100081.63
2022-10-02T20:32:26.379Z,100081.75
2022-10-02T20:35:54.463Z,100084.47
2022-10-02T20:39:21.614Z,100075.97
2022-10-02T20:42:53.693Z,100075.16
2022-10-02T20:46:47.685Z,100067.53
2022-10-02T20:50:31.941Z,100069.47
2022-10-02T20:54:40.785Z,100067.75
2022-10-02T20:58:48.778Z,100061.00
2022-10-02T21:02:33.304Z,100063.59
2022-10-02T21:06:28.166Z,100062.75
2022-10-02T21:10:19.383Z,100056.66
2022-10-02T21:14:13.995Z,100059.31
2022-10-02T21:18:15.448Z,100063.56
2022-10-02T21:22:25.518Z,100070.34
2022-10-02T21:26:28.409Z,100072.06
2022-10-02T21:30:15.850Z,100068.56
2022-10-02T21:33:42.396Z,100065.97
2022-10-02T21:37:22.757Z,100061.72
2022-10-02T21:41:33.033Z,100073.75
2022-10-02T21:45:46.807Z,100074.72
2022-10-02T21:49:52.745Z,100075.66
2022-10-02T21:53:52.370Z,100077.38
2022-10-02T21:57:53.933Z,100070.53
2022-10-02T22:01:57.131Z,100071.44
2022-10-02T22:05:57.806Z,100064.66
2022-10-02T22:09:37.637Z,100059.66
2022-10-02T22:13:18.620Z,100058.75
2022-10-02T22:16:52.429Z,100061.34
2022-10-02T22:20:35.976Z,100056.38
2022-10-02T22:24:21.261Z,100057.94
2022-10-02T22:28:06.796Z,100057.22
2022-10-02T22:31:51.719Z,100051.19
2022-10-02T22:35:28.913Z,100042.56
2022-10-02T22:38:54.847Z,100047.44
2022-10-02T22:42:26.199Z,100046.59
2022-10-02T22:45:53.519Z,100038.66
2022-10-02T22:49:27.486Z,100042.09
2022-10-02T22:52:54.540Z,100039.53
2022-10-02T22:56:25.995Z,100036.81
2022-10-02T22:59:55.810Z,100030.06
2022-10-02T23:03:26.817Z,100042.22
2022-10-02T23:06:54.433Z,100038.88
2022-10-02T23:10:30.814Z,100044.91
2022-10-02T23:14:00.220Z,100040.75
2022-10-02T23:17:33.832Z,100049.31
2022-10-02T23:21:04.985Z,100051.88
2022-10-02T23:24:33.166Z,100045.88
2022-10-02T23:28:02.435Z,100044.72
2022-10-02T23:31:31.851Z,100044.63
2022-10-02T23:35:03.247Z,100044.56
2022-10-02T23:38:37.361Z,100030.16
2022-10-02T23:42:01.145Z,100041.06
2022-10-02T23:45:29.015Z,100039.31
2022-10-02T23:48:52.494Z,100042.78
2022-10-02T23:52:39.003Z,100033.22
2022-10-02T23:56:16.606Z,100036.56
